Wetterdaten: Woche 23.03.09 - 29.03.09 (KW13)
Datum Zeit Temp. A. Feuchte A. Luftdruck Regen Wind Richtung Taupunkt Windchill Windben
23.03.2009 00:00 7,1 C 56 % 1015,5 hPa 0,0 l/m 18,5 km/h W -1,0 C 0,2 C 38,2 km/h
23.03.2009 01:00 7,1 C 57 % 1015,2 hPa 0,0 l/m 16,6 km/h W -0,8 C 0,9 C 37,8 km/h
23.03.2009 02:00 6,6 C 62 % 1014,6 hPa 0,0 l/m 15,7 km/h W -0,2 C 0,7 C 38,7 km/h
23.03.2009 03:00 6,0 C 67 % 1013,6 hPa 0,0 l/m 17,1 km/h W 0,4 C -0,7 C 40,2 km/h
23.03.2009 04:00 5,8 C 69 % 1012,5 hPa 0,0 l/m 17,8 km/h W 0,5 C -1,2 C 43,5 km/h
23.03.2009 05:00 5,9 C 69 % 1011,7 hPa 0,0 l/m 20,5 km/h W-NW 0,5 C -2,2 C 43,5 km/h
23.03.2009 06:00 6,1 C 68 % 1011,0 hPa 0,0 l/m 21,8 km/h W 0,6 C -2,4 C 46,3 km/h
23.03.2009 07:00 6,7 C 65 % 1010,6 hPa 0,0 l/m 22,8 km/h W 0,5 C -1,9 C 47,8 km/h
23.03.2009 08:00 7,3 C 64 % 1010,5 hPa 0,0 l/m 24,9 km/h W 0,8 C -1,8 C 56,3 km/h
23.03.2009 09:00 8,1 C 61 % 1009,7 hPa 0,0 l/m 24,9 km/h W 1,0 C -0,6 C 53,9 km/h
23.03.2009 10:00 8,7 C 60 % 1009,0 hPa 0,0 l/m 26,5 km/h W 1,4 C -0,3 C 60,3 km/h
23.03.2009 11:00 8,4 C 65 % 1008,8 hPa 0,0 l/m 28,2 km/h W 2,1 C -1,2 C 62,8 km/h
23.03.2009 12:00 9,0 C 62 % 1008,3 hPa 0,0 l/m 25,7 km/h W 2,0 C 0,3 C 54,7 km/h
23.03.2009 13:00 9,5 C 60 % 1007,7 hPa 0,0 l/m 22,5 km/h W 2,1 C 1,9 C 53,9 km/h
23.03.2009 14:00 9,8 C 58 % 1006,4 hPa 0,0 l/m 22,5 km/h W 1,9 C 2,2 C 49,9 km/h
23.03.2009 15:00 9,9 C 57 % 1005,1 hPa 0,0 l/m 19,3 km/h W 1,7 C 3,4 C 42,7 km/h
23.03.2009 16:00 9,8 C 56 % 1003,7 hPa 0,0 l/m 18,3 km/h W-NW 1,3 C 3,6 C 36,6 km/h
23.03.2009 17:00 9,8 C 55 % 1002,8 hPa 0,0 l/m 14,4 km/h W 1,2 C 5,1 C 36,2 km/h
23.03.2009 18:00 9,8 C 54 % 1001,4 hPa 0,0 l/m 11,0 km/h W-SW 0,9 C 6,8 C 29,0 km/h
23.03.2009 19:00 10,4 C 51 % 1000,6 hPa 0,0 l/m 13,8 km/h W-NW 0,5 C 6,3 C 35,0 km/h
23.03.2009 20:00 10,4 C 53 % 1000,1 hPa 0,0 l/m 18,0 km/h W 1,3 C 4,5 C 40,2 km/h
23.03.2009 21:00 9,2 C 60 % 999,4 hPa 0,0 l/m 16,1 km/h W 1,9 C 3,7 C 38,2 km/h
23.03.2009 22:00 8,6 C 64 % 998,1 hPa 0,0 l/m 16,1 km/h W-SW 2,2 C 3,0 C 37,4 km/h
23.03.2009 23:00 8,2 C 67 % 997,3 hPa 0,0 l/m 16,3 km/h W-SW 2,4 C 2,4 C 37,0 km/h
24.03.2009 00:00 8,2 C 68 % 996,1 hPa 0,0 l/m 15,0 km/h W-SW 2,6 C 3,0 C 33,0 km/h
24.03.2009 01:00 8,2 C 67 % 994,9 hPa 0,0 l/m 13,9 km/h W-NW 2,4 C 3,5 C 30,6 km/h
24.03.2009 02:00 7,8 C 68 % 994,1 hPa 0,0 l/m 9,7 km/h S-SW 2,3 C 5,4 C 27,0 km/h
24.03.2009 03:00 4,5 C 80 % 995,8 hPa 2,7 l/m 10,3 km/h W 1,3 C 1,6 C 22,9 km/h
24.03.2009 04:00 2,9 C 87 % 996,8 hPa 2,4 l/m 8,3 km/h W 0,9 C 1,1 C 18,1 km/h
24.03.2009 05:00 2,4 C 87 % 997,9 hPa 2,7 l/m 14,1 km/h NW 0,4 C -3,4 C 29,8 km/h
24.03.2009 06:00 1,1 C 89 % 998,5 hPa 1,5 l/m 14,4 km/h NW -0,5 C -5,2 C 30,6 km/h
24.03.2009 07:00 2,5 C 84 % 997,7 hPa 2,1 l/m 19,9 km/h W-NW 0,1 C -6,3 C 42,7 km/h
24.03.2009 08:00 3,0 C 82 % 997,3 hPa 0,6 l/m 21,7 km/h W-NW 0,2 C -6,4 C 45,9 km/h
24.03.2009 09:00 4,1 C 76 % 997,6 hPa 0,0 l/m 20,1 km/h W-NW 0,2 C -4,4 C 45,9 km/h
24.03.2009 10:00 5,4 C 67 % 998,1 hPa 0,0 l/m 22,5 km/h W -0,2 C -3,6 C 52,3 km/h
24.03.2009 11:00 6,4 C 62 % 998,8 hPa 0,0 l/m 19,3 km/h W -0,5 C -1,1 C 45,1 km/h
24.03.2009 12:00 6,9 C 59 % 999,1 hPa 0,0 l/m 16,9 km/h W -0,5 C 0,6 C 44,3 km/h
24.03.2009 13:00 6,8 C 60 % 999,7 hPa 0,0 l/m 15,3 km/h W -0,6 C 1,1 C 37,0 km/h
24.03.2009 14:00 4,8 C 71 % 1000,5 hPa 0,0 l/m 12,1 km/h NW -0,1 C 0,5 C 28,2 km/h
24.03.2009 15:00 5,4 C 69 % 1000,3 hPa 0,6 l/m 8,0 km/h NW 0,2 C 4,1 C 20,9 km/h
24.03.2009 16:00 5,7 C 65 % 1000,7 hPa 0,0 l/m 5,3 km/h NW -0,4 C 5,6 C 12,5 km/h
24.03.2009 17:00 5,6 C 64 % 1001,0 hPa 0,0 l/m 11,4 km/h NW -0,7 C 1,8 C 33,8 km/h
24.03.2009 18:00 4,9 C 64 % 1001,3 hPa 0,0 l/m 8,5 km/h W -1,4 C 3,0 C 23,8 km/h
24.03.2009 19:00 4,5 C 63 % 1001,6 hPa 0,0 l/m 11,5 km/h W-NW -2,0 C 0,5 C 29,0 km/h
24.03.2009 20:00 4,1 C 64 % 1001,4 hPa 0,0 l/m 15,5 km/h W -2,1 C -2,2 C 38,2 km/h
24.03.2009 21:00 4,0 C 66 % 1001,5 hPa 0,0 l/m 17,0 km/h W -1,8 C -3,2 C 41,1 km/h
24.03.2009 22:00 1,7 C 78 % 1003,2 hPa 0,0 l/m 13,8 km/h N-NW -1,8 C -4,1 C 28,5 km/h
24.03.2009 23:00 -0,4 C 82 % 1004,1 hPa 0,0 l/m 10,1 km/h W-NW -3,2 C -4,0 C 24,1 km/h
25.03.2009 00:00 -0,1 C 70 % 1005,3 hPa 0,0 l/m 10,5 km/h NW -4,9 C -3,9 C 22,9 km/h
25.03.2009 01:00 -0,8 C 58 % 1006,6 hPa 0,0 l/m 11,2 km/h NW -8,1 C -5,3 C 24,5 km/h
25.03.2009 02:00 -1,6 C 57 % 1007,5 hPa 0,0 l/m 12,8 km/h NW -9,0 C -7,3 C 26,9 km/h
25.03.2009 03:00 -1,9 C 61 % 1007,5 hPa 0,0 l/m 10,5 km/h W-NW -8,5 C -5,9 C 24,1 km/h
25.03.2009 04:00 -1,8 C 61 % 1007,8 hPa 0,0 l/m 10,6 km/h W -8,3 C -5,9 C 22,9 km/h
25.03.2009 05:00 -1,9 C 61 % 1008,3 hPa 0,0 l/m 9,6 km/h NW -8,4 C -5,1 C 22,5 km/h
25.03.2009 06:00 -1,5 C 60 % 1008,9 hPa 0,0 l/m 8,4 km/h NW -8,2 C -3,7 C 21,7 km/h
25.03.2009 07:00 -0,5 C 57 % 1009,2 hPa 0,0 l/m 8,8 km/h NW -8,0 C -2,7 C 22,1 km/h
25.03.2009 08:00 0,4 C 55 % 1009,4 hPa 0,0 l/m 10,9 km/h NW -7,7 C -3,7 C 24,6 km/h
25.03.2009 09:00 1,1 C 52 % 1009,6 hPa 0,0 l/m 13,8 km/h NW -7,8 C -4,9 C 30,6 km/h
25.03.2009 10:00 1,8 C 57 % 1009,4 hPa 0,0 l/m 10,0 km/h W -5,9 C -1,3 C 25,3 km/h
25.03.2009 11:00 3,8 C 55 % 1008,5 hPa 0,9 l/m 11,2 km/h NW -4,4 C -0,0 C 26,1 km/h
25.03.2009 12:00 4,0 C 53 % 1007,8 hPa 0,0 l/m 9,8 km/h W-SW -4,9 C 1,1 C 21,7 km/h
25.03.2009 13:00 5,0 C 50 % 1007,0 hPa 0,0 l/m 6,8 km/h W-NW -4,6 C 3,8 C 18,5 km/h
25.03.2009 14:00 6,0 C 43 % 1006,3 hPa 0,0 l/m 6,8 km/h NW -5,7 C 5,4 C 18,1 km/h
25.03.2009 15:00 6,3 C 42 % 1005,7 hPa 0,0 l/m 7,3 km/h W -5,6 C 5,5 C 19,3 km/h
25.03.2009 16:00 6,0 C 46 % 1004,9 hPa 0,0 l/m 6,5 km/h SW -4,7 C 5,6 C 16,1 km/h
25.03.2009 17:00 5,6 C 47 % 1004,8 hPa 0,0 l/m 5,4 km/h SW -4,8 C 5,6 C 14,9 km/h
25.03.2009 18:00 4,6 C 57 % 1004,7 hPa 0,0 l/m 2,0 km/h SW -3,3 C 4,6 C 9,6 km/h
25.03.2009 19:00 3,8 C 61 % 1004,7 hPa 0,0 l/m 0,4 km/h S -3,1 C 3,8 C 2,8 km/h
25.03.2009 20:00 4,1 C 61 % 1004,6 hPa 0,0 l/m 2,0 km/h O-SO -2,8 C 4,1 C 7,6 km/h
25.03.2009 21:00 3,2 C 76 % 1004,1 hPa 0,0 l/m 1,4 km/h SO -0,6 C 3,2 C 5,6 km/h
25.03.2009 22:00 3,2 C 77 % 1003,7 hPa 0,0 l/m 2,2 km/h S -0,4 C 3,2 C 11,7 km/h
25.03.2009 23:00 3,4 C 75 % 1003,5 hPa 0,0 l/m 0,3 km/h N -0,6 C 3,4 C 3,6 km/h
26.03.2009 00:00 3,5 C 74 % 1003,4 hPa 0,0 l/m 0,8 km/h S-SO -0,8 C 3,5 C 5,2 km/h
26.03.2009 01:00 2,9 C 81 % 1003,3 hPa 0,0 l/m 0,7 km/h S-SW -0,1 C 2,9 C 4,0 km/h
26.03.2009 02:00 2,1 C 87 % 1003,2 hPa 0,3 l/m 0,5 km/h N 0,1 C 2,1 C 2,8 km/h
26.03.2009 03:00 1,1 C 90 % 1003,0 hPa 0,0 l/m 0,3 km/h SW -0,3 C 1,1 C 2,4 km/h
26.03.2009 04:00 1,1 C 91 % 1003,3 hPa 0,0 l/m 0,8 km/h N -0,3 C 1,1 C 3,2 km/h
26.03.2009 05:00 2,0 C 90 % 1003,8 hPa 0,0 l/m 0,2 km/h N 0,5 C 2,0 C 2,4 km/h
26.03.2009 06:00 2,7 C 89 % 1004,6 hPa 0,0 l/m 0,2 km/h N 1,0 C 2,7 C 2,4 km/h
26.03.2009 07:00 4,1 C 84 % 1005,5 hPa 0,3 l/m 4,0 km/h W 1,6 C 3,9 C 12,5 km/h
26.03.2009 08:00 4,4 C 83 % 1006,3 hPa 0,3 l/m 7,5 km/h W 1,8 C 3,5 C 20,5 km/h
26.03.2009 09:00 6,1 C 78 % 1006,8 hPa 0,0 l/m 11,3 km/h W-NW 2,6 C 2,5 C 26,1 km/h
26.03.2009 10:00 7,3 C 73 % 1007,6 hPa 0,0 l/m 11,7 km/h W 2,7 C 3,6 C 27,7 km/h
26.03.2009 11:00 7,8 C 69 % 1008,1 hPa 0,0 l/m 11,4 km/h W 2,5 C 4,4 C 22,9 km/h
26.03.2009 12:00 7,0 C 72 % 1008,7 hPa 0,3 l/m 8,3 km/h NW 2,3 C 5,5 C 21,7 km/h
26.03.2009 13:00 5,5 C 83 % 1009,5 hPa 1,5 l/m 9,8 km/h SW 2,9 C 2,9 C 26,1 km/h
26.03.2009 14:00 7,7 C 74 % 1009,5 hPa 0,0 l/m 11,8 km/h NW 3,3 C 4,0 C 24,9 km/h
26.03.2009 15:00 6,6 C 76 % 1010,1 hPa 0,9 l/m 8,6 km/h W 2,6 C 4,8 C 22,9 km/h
26.03.2009 16:00 7,3 C 70 % 1010,1 hPa 0,0 l/m 12,1 km/h W 2,0 C 3,4 C 28,2 km/h
26.03.2009 17:00 6,8 C 68 % 1010,4 hPa 0,0 l/m 11,0 km/h W 1,2 C 3,5 C 27,8 km/h
26.03.2009 18:00 5,9 C 68 % 1010,3 hPa 0,0 l/m 4,4 km/h W 0,5 C 5,9 C 14,9 km/h
26.03.2009 19:00 3,9 C 77 % 1010,6 hPa 0,0 l/m 0,6 km/h SW 0,1 C 3,9 C 4,0 km/h
26.03.2009 20:00 1,5 C 86 % 1010,8 hPa 0,0 l/m 0,1 km/h N -0,7 C 1,5 C 0,8 km/h
26.03.2009 21:00 1,4 C 88 % 1010,7 hPa 0,0 l/m 0,1 km/h N -0,4 C 1,4 C 1,6 km/h
26.03.2009 22:00 1,6 C 87 % 1010,4 hPa 0,0 l/m 0,0 km/h N -0,3 C 1,6 C 0,8 km/h
26.03.2009 23:00 2,3 C 86 % 1010,0 hPa 0,0 l/m 0,0 km/h N 0,3 C 2,3 C 0,0 km/h
27.03.2009 00:00 2,5 C 85 % 1009,4 hPa 0,0 l/m 0,3 km/h S 0,3 C 2,5 C 2,4 km/h
27.03.2009 01:00 4,1 C 76 % 1008,9 hPa 0,0 l/m 1,0 km/h N 0,2 C 4,1 C 6,4 km/h
27.03.2009 02:00 4,1 C 76 % 1008,0 hPa 0,0 l/m 0,2 km/h W-SW 0,3 C 4,1 C 1,6 km/h
27.03.2009 03:00 3,7 C 82 % 1007,4 hPa 0,0 l/m 0,5 km/h N 0,9 C 3,7 C 3,2 km/h
27.03.2009 04:00 3,5 C 84 % 1006,9 hPa 0,0 l/m 0,0 km/h N 0,9 C 3,5 C 1,2 km/h
27.03.2009 05:00 2,5 C 87 % 1006,7 hPa 0,0 l/m 0,0 km/h N 0,4 C 2,5 C 0,8 km/h
27.03.2009 06:00 2,6 C 87 % 1006,8 hPa 0,0 l/m 0,0 km/h N 0,7 C 2,6 C 1,6 km/h
27.03.2009 07:00 4,7 C 82 % 1007,0 hPa 0,0 l/m 0,8 km/h O-SO 1,8 C 4,7 C 4,4 km/h
27.03.2009 08:00 8,3 C 69 % 1007,0 hPa 0,0 l/m 2,2 km/h W-SW 2,9 C 8,3 C 8,4 km/h
27.03.2009 09:00 9,4 C 67 % 1006,9 hPa 0,0 l/m 6,0 km/h S 3,5 C 9,1 C 19,7 km/h
27.03.2009 10:00 10,5 C 63 % 1006,6 hPa 0,0 l/m 2,7 km/h S 3,8 C 10,5 C 11,3 km/h
27.03.2009 11:00 12,4 C 57 % 1006,5 hPa 0,0 l/m 8,6 km/h SW 4,1 C 11,0 C 22,6 km/h
27.03.2009 12:00 12,3 C 57 % 1006,3 hPa 0,0 l/m 6,1 km/h S 3,9 C 12,1 C 16,5 km/h
27.03.2009 13:00 13,3 C 54 % 1005,8 hPa 0,0 l/m 3,6 km/h S 4,3 C 13,3 C 14,1 km/h
27.03.2009 14:00 13,2 C 53 % 1005,6 hPa 0,0 l/m 2,3 km/h S 3,7 C 13,2 C 8,4 km/h
27.03.2009 15:00 12,8 C 53 % 1005,6 hPa 0,0 l/m 3,6 km/h S 3,4 C 12,8 C 12,5 km/h
27.03.2009 16:00 12,5 C 56 % 1005,5 hPa 0,0 l/m 0,8 km/h SW 4,0 C 12,5 C 4,8 km/h
27.03.2009 17:00 12,2 C 57 % 1005,3 hPa 0,0 l/m 2,6 km/h W-SW 3,8 C 12,2 C 9,3 km/h
27.03.2009 18:00 11,5 C 59 % 1005,6 hPa 0,0 l/m 0,7 km/h N 3,6 C 11,5 C 4,4 km/h
27.03.2009 19:00 9,2 C 67 % 1005,7 hPa 0,0 l/m 0,4 km/h W-SW 3,3 C 9,2 C 3,2 km/h
27.03.2009 20:00 9,5 C 67 % 1005,9 hPa 0,0 l/m 4,6 km/h W-SW 3,6 C 9,5 C 12,5 km/h
27.03.2009 21:00 8,3 C 70 % 1006,1 hPa 0,0 l/m 0,7 km/h N 3,1 C 8,3 C 4,4 km/h
27.03.2009 22:00 7,6 C 72 % 1005,9 hPa 0,0 l/m 1,1 km/h W-SW 2,9 C 7,6 C 6,4 km/h
27.03.2009 23:00 6,6 C 76 % 1006,1 hPa 0,0 l/m 0,9 km/h N 2,7 C 6,6 C 4,4 km/h
28.03.2009 00:00 5,6 C 82 % 1005,9 hPa 0,0 l/m 0,1 km/h N 2,7 C 5,6 C 1,6 km/h
28.03.2009 01:00 5,8 C 79 % 1005,9 hPa 0,0 l/m 0,4 km/h N 2,5 C 5,8 C 3,6 km/h
28.03.2009 02:00 4,0 C 84 % 1006,0 hPa 0,0 l/m 0,1 km/h N 1,5 C 4,0 C 2,0 km/h
28.03.2009 03:00 3,0 C 87 % 1005,9 hPa 0,0 l/m 0,3 km/h N 1,1 C 3,0 C 2,8 km/h
28.03.2009 04:00 2,1 C 89 % 1005,8 hPa 0,0 l/m 0,1 km/h N 0,5 C 2,1 C 1,6 km/h
28.03.2009 05:00 2,5 C 90 % 1005,6 hPa 0,0 l/m 0,4 km/h N 1,0 C 2,5 C 4,0 km/h
28.03.2009 06:00 2,1 C 91 % 1005,6 hPa 0,0 l/m 0,0 km/h N 0,7 C 2,1 C 0,4 km/h
28.03.2009 07:00 5,1 C 86 % 1004,7 hPa 0,0 l/m 0,7 km/h O-SO 2,9 C 5,1 C 3,2 km/h
28.03.2009 08:00 7,0 C 79 % 1004,0 hPa 0,0 l/m 1,8 km/h O 3,7 C 7,0 C 6,4 km/h
28.03.2009 09:00 8,6 C 74 % 1003,6 hPa 0,0 l/m 4,1 km/h O 4,3 C 8,6 C 9,3 km/h
28.03.2009 10:00 10,8 C 70 % 1002,7 hPa 0,0 l/m 2,1 km/h NO 5,5 C 10,8 C 7,2 km/h
28.03.2009 11:00 14,7 C 58 % 1001,6 hPa 0,0 l/m 2,2 km/h O 6,4 C 14,7 C 8,4 km/h
28.03.2009 12:00 18,4 C 43 % 1000,2 hPa 0,0 l/m 9,7 km/h S 5,4 C 16,8 C 27,0 km/h
28.03.2009 13:00 18,7 C 42 % 999,9 hPa 0,0 l/m 13,5 km/h S-SO 5,3 C 16,0 C 33,4 km/h
28.03.2009 14:00 18,9 C 41 % 999,7 hPa 0,0 l/m 11,4 km/h SO 5,4 C 17,0 C 31,8 km/h
28.03.2009 15:00 18,7 C 41 % 999,1 hPa 0,0 l/m 11,1 km/h S-SO 5,0 C 16,9 C 31,8 km/h
28.03.2009 16:00 18,4 C 42 % 998,7 hPa 0,0 l/m 9,6 km/h S-SO 5,1 C 17,0 C 25,8 km/h
28.03.2009 17:00 17,0 C 44 % 999,0 hPa 0,0 l/m 10,5 km/h S 4,7 C 15,1 C 29,8 km/h
28.03.2009 18:00 15,1 C 49 % 999,8 hPa 0,0 l/m 8,5 km/h SO 4,4 C 13,9 C 22,1 km/h
28.03.2009 19:00 13,8 C 53 % 1000,7 hPa 0,0 l/m 2,6 km/h SO 4,5 C 13,8 C 12,9 km/h
28.03.2009 20:00 13,1 C 56 % 1001,7 hPa 0,0 l/m 1,5 km/h S 4,5 C 13,1 C 10,1 km/h
28.03.2009 21:00 13,3 C 54 % 1002,9 hPa 0,0 l/m 3,3 km/h S 4,2 C 13,3 C 10,8 km/h
28.03.2009 22:00 11,2 C 64 % 1004,1 hPa 0,0 l/m 0,9 km/h S 4,6 C 11,2 C 5,2 km/h
28.03.2009 23:00 11,6 C 65 % 1005,3 hPa 0,0 l/m 1,6 km/h W 5,3 C 11,6 C 6,8 km/h
29.03.2009 00:00 11,6 C 62 % 1005,9 hPa 0,0 l/m 3,4 km/h W 4,6 C 11,6 C 10,9 km/h
29.03.2009 01:00 10,8 C 66 % 1006,1 hPa 0,0 l/m 3,6 km/h W 4,6 C 10,8 C 10,5 km/h
29.03.2009 03:00 10,0 C 70 % 1006,2 hPa 0,0 l/m 2,2 km/h W 4,8 C 10,0 C 6,0 km/h
29.03.2009 04:00 9,1 C 74 % 1006,2 hPa 0,0 l/m 0,7 km/h N 4,7 C 9,1 C 3,6 km/h
29.03.2009 05:00 8,1 C 80 % 1006,3 hPa 0,0 l/m 0,0 km/h N 4,7 C 8,1 C 1,2 km/h
29.03.2009 06:00 8,2 C 79 % 1006,4 hPa 0,0 l/m 0,2 km/h N 4,7 C 8,2 C 2,4 km/h
29.03.2009 07:00 8,3 C 80 % 1006,3 hPa 0,0 l/m 0,0 km/h N 4,9 C 8,3 C 1,2 km/h
29.03.2009 08:00 8,9 C 79 % 1006,5 hPa 0,0 l/m 0,1 km/h N 5,3 C 8,9 C 0,8 km/h
29.03.2009 09:00 9,0 C 79 % 1006,6 hPa 0,3 l/m 0,5 km/h N 5,5 C 9,0 C 3,2 km/h
29.03.2009 10:00 8,6 C 86 % 1007,0 hPa 1,2 l/m 0,6 km/h NW 6,3 C 8,6 C 3,2 km/h
29.03.2009 11:00 8,8 C 85 % 1006,9 hPa 0,6 l/m 1,3 km/h NW 6,3 C 8,8 C 4,4 km/h
29.03.2009 12:00 8,3 C 85 % 1006,8 hPa 1,2 l/m 2,5 km/h N 6,0 C 8,3 C 7,2 km/h
29.03.2009 13:00 8,0 C 88 % 1006,5 hPa 1,8 l/m 2,2 km/h NO 6,1 C 8,0 C 6,4 km/h
29.03.2009 14:00 7,7 C 90 % 1006,3 hPa 2,1 l/m 2,0 km/h N-NW 6,1 C 7,7 C 6,4 km/h
29.03.2009 15:00 7,4 C 91 % 1006,0 hPa 2,1 l/m 3,0 km/h NW 6,1 C 7,4 C 7,2 km/h
29.03.2009 16:00 7,1 C 90 % 1006,0 hPa 3,6 l/m 3,4 km/h N-NW 5,6 C 7,1 C 8,4 km/h
29.03.2009 17:00 6,5 C 90 % 1006,5 hPa 3,6 l/m 6,4 km/h W-NW 4,9 C 6,2 C 16,5 km/h
29.03.2009 18:00 5,8 C 89 % 1007,1 hPa 1,8 l/m 7,8 km/h NW 4,1 C 4,6 C 19,7 km/h
29.03.2009 19:00 4,8 C 88 % 1007,4 hPa 1,5 l/m 7,3 km/h W 3,0 C 4,0 C 18,9 km/h
29.03.2009 20:00 4,0 C 89 % 1008,0 hPa 3,9 l/m 4,8 km/h W-NW 2,3 C 4,0 C 13,7 km/h
29.03.2009 21:00 3,6 C 89 % 1008,5 hPa 2,4 l/m 3,7 km/h SW 1,9 C 3,6 C 11,7 km/h
29.03.2009 22:00 3,3 C 88 % 1008,8 hPa 2,1 l/m 5,4 km/h W 1,5 C 3,3 C 16,5 km/h
29.03.2009 23:00 2,8 C 89 % 1009,2 hPa 4,2 l/m 6,3 km/h W-SW 1,1 C 2,1 C 16,1 km/h
Min-Datum _ 25.03.09 28.03.09 24.03.09 - 25.03.09 - 25.03.09 25.03.09 26.03.09
_ Min-Zeit 05:30 14:15 02:45 - 18:30 - 02:15 02:00 02:45
Minimum _ -2,1 C 40 % 994,0 hPa - 0,0 km/h - -9,1 C -8,7 C 0,0 km/h
Max-Datum _ 28.03.09 26.03.09 23.03.09 29.03.09 23.03.09 - 28.03.09 28.03.09 23.03.09
_ Max-Zeit 14:30 03:30 00:15 23:00 11:00 - 11:30 16:30 11:00
Maximum _ 19,3 C 91 % 1015,7 hPa 4,2 l/m 29,0 km/h
W
- 7,0 C 18,0 C 64,4 km/h
W
Durchschnitt _ 6,5 C 69 % 1005,2 hPa #49,5 l/m 7,9 km/h W 1,0 C 4,2 C 19,6 km/h